createdAt,value
2023-04-04T00:00:33.662Z,1.10
2023-04-04T00:03:01.655Z,1.47
2023-04-04T00:05:29.630Z,1.10
2023-04-04T00:07:58.963Z,1.20
2023-04-04T00:10:27.269Z,1.20
2023-04-04T00:12:55.385Z,1.40
2023-04-04T00:15:23.325Z,1.60
2023-04-04T00:17:51.896Z,1.23
2023-04-04T00:20:19.890Z,1.40
2023-04-04T00:22:47.788Z,1.10
2023-04-04T00:25:17.208Z,1.37
2023-04-04T00:27:45.105Z,1.27
2023-04-04T00:30:14.034Z,1.30
2023-04-04T00:32:42.149Z,1.40
2023-04-04T00:35:10.468Z,1.50
2023-04-04T00:37:38.951Z,1.20
2023-04-04T00:40:08.621Z,1.20
2023-04-04T00:42:38.399Z,1.60
2023-04-04T00:45:08.454Z,1.50
2023-04-04T00:47:36.481Z,1.50
2023-04-04T00:50:04.692Z,1.17
2023-04-04T00:52:32.677Z,1.13
2023-04-04T00:55:01.439Z,1.67
2023-04-04T00:57:29.922Z,1.33
2023-04-04T01:00:00.570Z,1.63
2023-04-04T01:02:28.574Z,1.23
2023-04-04T01:04:56.737Z,1.37
2023-04-04T01:07:24.687Z,1.50
2023-04-04T01:09:52.768Z,1.40
2023-04-04T01:12:20.849Z,1.33
2023-04-04T01:14:48.786Z,1.27
2023-04-04T01:17:18.099Z,1.70
2023-04-04T01:19:49.873Z,1.20
2023-04-04T01:22:19.229Z,1.40
2023-04-04T01:24:48.044Z,1.43
2023-04-04T01:27:17.403Z,1.57
2023-04-04T01:29:45.484Z,1.30
2023-04-04T01:32:15.258Z,1.50
2023-04-04T01:34:46.135Z,1.17
2023-04-04T01:37:20.658Z,1.50
2023-04-04T01:39:51.152Z,1.80
2023-04-04T01:42:21.207Z,1.63
2023-04-04T01:44:49.169Z,1.33
2023-04-04T01:47:17.096Z,1.60
2023-04-04T01:49:45.169Z,1.60
2023-04-04T01:52:13.098Z,1.60
2023-04-04T01:54:41.010Z,1.80
2023-04-04T01:57:08.934Z,1.57
2023-04-04T01:59:38.263Z,1.93
2023-04-04T02:02:06.599Z,1.50
2023-04-04T02:04:34.592Z,1.47
2023-04-04T02:07:02.631Z,1.83
2023-04-04T02:09:30.553Z,1.40
2023-04-04T02:11:58.532Z,1.60
2023-04-04T02:14:26.543Z,1.60
2023-04-04T02:16:55.911Z,1.20
2023-04-04T02:19:24.426Z,1.40
2023-04-04T02:21:52.360Z,1.70
2023-04-04T02:24:20.447Z,1.63
2023-04-04T02:26:48.434Z,1.50
2023-04-04T02:29:16.859Z,1.90
2023-04-04T02:31:44.803Z,1.50
2023-04-04T02:34:14.270Z,1.47
2023-04-04T02:36:42.159Z,1.20
2023-04-04T02:39:10.187Z,1.43
2023-04-04T02:41:38.075Z,1.83
2023-04-04T02:44:06.014Z,1.37
2023-04-04T02:46:34.361Z,1.67
2023-04-04T02:49:02.417Z,1.40
2023-04-04T02:51:33.590Z,1.53
2023-04-04T02:54:03.000Z,1.70
2023-04-04T02:56:30.929Z,1.50
2023-04-04T02:58:59.449Z,1.70
2023-04-04T03:01:27.417Z,1.23
2023-04-04T03:03:55.503Z,1.43
2023-04-04T03:06:23.600Z,1.40
2023-04-04T03:08:52.883Z,1.53
2023-04-04T03:11:21.604Z,1.53
2023-04-04T03:13:51.266Z,1.20
2023-04-04T03:16:20.406Z,1.40
2023-04-04T03:18:48.377Z,1.30
2023-04-04T03:21:16.691Z,1.40
2023-04-04T03:23:44.627Z,1.70
2023-04-04T03:26:13.917Z,1.77
2023-04-04T03:28:41.832Z,1.37
2023-04-04T03:31:09.814Z,1.47
2023-04-04T03:33:38.194Z,1.40
2023-04-04T03:36:11.917Z,1.53
2023-04-04T03:38:40.123Z,1.37
2023-04-04T03:41:08.912Z,1.80
2023-04-04T03:43:38.186Z,1.33
2023-04-04T03:46:07.342Z,1.30
2023-04-04T03:48:35.507Z,1.77
2023-04-04T03:51:04.595Z,1.60
2023-04-04T03:53:32.636Z,1.57
2023-04-04T03:56:01.169Z,1.37
2023-04-04T03:58:30.302Z,1.50
2023-04-04T04:00:59.620Z,1.63
2023-04-04T04:03:27.662Z,1.90
2023-04-04T04:05:55.615Z,1.53
2023-04-04T04:08:25.200Z,1.40
2023-04-04T04:10:53.345Z,1.50
2023-04-04T04:13:21.595Z,2.07
2023-04-04T04:15:49.557Z,1.43
2023-04-04T04:18:18.873Z,1.40
2023-04-04T04:20:46.889Z,2.10
2023-04-04T04:23:14.929Z,1.57
2023-04-04T04:25:42.837Z,1.40
2023-04-04T04:28:10.806Z,1.70
2023-04-04T04:30:38.899Z,1.30
2023-04-04T04:33:06.960Z,1.77
2023-04-04T04:35:39.202Z,1.60
2023-04-04T04:38:07.267Z,1.87
2023-04-04T04:40:35.224Z,1.70
2023-04-04T04:43:03.184Z,1.77
2023-04-04T04:45:31.458Z,1.47
2023-04-04T04:47:59.379Z,1.30
2023-04-04T04:50:27.305Z,1.47
2023-04-04T04:52:56.593Z,1.60
2023-04-04T04:55:24.464Z,1.77
2023-04-04T04:57:52.597Z,1.77
2023-04-04T05:00:22.335Z,1.53
2023-04-04T05:02:50.881Z,1.90
2023-04-04T05:05:18.915Z,1.43
2023-04-04T05:07:47.353Z,1.97
2023-04-04T05:10:16.863Z,1.40
2023-04-04T05:12:45.422Z,1.77
2023-04-04T05:15:13.800Z,1.47
2023-04-04T05:17:41.930Z,1.70
2023-04-04T05:20:10.806Z,1.60
2023-04-04T05:22:38.688Z,1.57
2023-04-04T05:25:07.345Z,1.73
2023-04-04T05:27:36.715Z,1.47
2023-04-04T05:30:05.061Z,1.77
2023-04-04T05:32:32.974Z,1.70
2023-04-04T05:35:00.965Z,1.73
2023-04-04T05:37:28.968Z,2.13
2023-04-04T05:39:57.460Z,1.83
2023-04-04T05:42:25.431Z,1.53
2023-04-04T05:44:54.698Z,1.27
2023-04-04T05:47:22.891Z,1.80
2023-04-04T05:49:51.117Z,1.57
2023-04-04T05:52:19.069Z,1.80
2023-04-04T05:54:47.385Z,1.37
2023-04-04T05:57:15.353Z,1.50
2023-04-04T05:59:43.435Z,1.43
2023-04-04T06:02:13.495Z,1.47
2023-04-04T06:04:41.471Z,1.47
2023-04-04T06:07:09.424Z,1.83
2023-04-04T06:09:37.352Z,1.50
2023-04-04T06:12:05.622Z,1.57
2023-04-04T06:14:33.563Z,2.03
2023-04-04T06:17:01.517Z,1.70
2023-04-04T06:19:30.866Z,1.70
2023-04-04T06:21:58.865Z,1.80
2023-04-04T06:24:27.329Z,1.70
2023-04-04T06:26:55.277Z,1.73
2023-04-04T06:29:24.279Z,1.80
2023-04-04T06:31:52.235Z,1.73
2023-04-04T06:34:22.782Z,2.17
2023-04-04T06:36:52.152Z,1.63
2023-04-04T06:39:20.086Z,1.60
2023-04-04T06:41:48.481Z,1.47
2023-04-04T06:44:16.464Z,1.90
2023-04-04T06:46:44.694Z,1.60
2023-04-04T06:49:12.705Z,2.23
2023-04-04T06:51:41.742Z,1.60
2023-04-04T06:54:11.082Z,1.70
2023-04-04T06:56:39.000Z,1.90
2023-04-04T06:59:07.003Z,1.60
2023-04-04T07:01:35.013Z,1.70
2023-04-04T07:04:02.942Z,1.50
2023-04-04T07:06:31.363Z,2.13
2023-04-04T07:08:59.322Z,1.93
2023-04-04T07:11:29.250Z,1.43
2023-04-04T07:13:57.386Z,1.90
2023-04-04T07:16:25.313Z,1.40
2023-04-04T07:18:53.226Z,1.60
2023-04-04T07:21:21.148Z,1.83
2023-04-04T07:23:50.834Z,2.00
2023-04-04T07:26:18.740Z,1.80
2023-04-04T07:28:47.998Z,1.73
2023-04-04T07:31:15.975Z,1.50
2023-04-04T07:33:43.896Z,1.60
2023-04-04T07:36:12.189Z,1.50
2023-04-04T07:38:40.222Z,1.00
2023-04-04T07:41:08.102Z,1.20
2023-04-04T07:43:36.013Z,1.27
2023-04-04T07:46:05.532Z,1.33
2023-04-04T07:48:33.456Z,1.10
2023-04-04T07:51:04.458Z,1.20
2023-04-04T07:53:32.688Z,1.63
2023-04-04T07:56:06.189Z,1.20
2023-04-04T07:58:34.432Z,1.23
2023-04-04T08:01:02.551Z,1.00
2023-04-04T08:03:32.046Z,1.77
2023-04-04T08:06:00.152Z,1.10
2023-04-04T08:08:28.130Z,1.60
2023-04-04T08:11:09.181Z,1.30
2023-04-04T08:13:37.387Z,1.50
2023-04-04T08:16:06.235Z,1.30
2023-04-04T08:18:35.649Z,1.47
2023-04-04T08:21:03.612Z,1.00
2023-04-04T08:23:31.516Z,1.60
2023-04-04T08:25:59.983Z,1.70
2023-04-04T08:28:28.456Z,1.30
2023-04-04T08:30:56.875Z,1.33
2023-04-04T08:33:34.241Z,1.30
2023-04-04T08:36:13.739Z,1.10
2023-04-04T08:38:41.695Z,1.40
2023-04-04T08:41:09.884Z,1.17
2023-04-04T08:43:41.367Z,1.40
2023-04-04T08:46:11.021Z,1.23
2023-04-04T08:48:40.675Z,1.50
2023-04-04T08:51:09.407Z,1.90
2023-04-04T08:53:38.866Z,1.80
2023-04-04T08:56:07.132Z,1.80
2023-04-04T08:58:35.113Z,1.77
2023-04-04T09:01:03.746Z,1.20
2023-04-04T09:03:35.770Z,1.87
2023-04-04T09:06:03.813Z,1.70
2023-04-04T09:08:32.673Z,1.27
2023-04-04T09:11:04.438Z,1.90
2023-04-04T09:13:34.387Z,1.40
2023-04-04T09:16:02.300Z,2.27
2023-04-04T09:18:32.298Z,1.70
2023-04-04T09:21:01.193Z,2.17
2023-04-04T09:23:29.104Z,1.87
2023-04-04T09:28:29.774Z,1.80
2023-04-04T09:30:57.714Z,1.47
2023-04-04T09:33:25.810Z,1.87
2023-04-04T09:35:56.646Z,2.00
2023-04-04T09:38:25.383Z,2.03
2023-04-04T09:40:53.995Z,1.70
2023-04-04T09:43:23.368Z,2.03
2023-04-04T09:45:53.351Z,3.00
2023-04-04T09:48:27.483Z,1.77
2023-04-04T09:50:55.803Z,1.90
2023-04-04T09:53:23.711Z,1.77
2023-04-04T09:55:52.529Z,1.60
2023-04-04T09:58:21.422Z,1.70
2023-04-04T10:00:49.992Z,2.03
2023-04-04T10:03:19.876Z,1.90
2023-04-04T10:05:48.642Z,1.67
2023-04-04T10:08:17.832Z,1.60
2023-04-04T10:11:02.697Z,1.23
2023-04-04T10:13:41.097Z,1.70
2023-04-04T10:16:10.934Z,1.80
2023-04-04T10:18:40.882Z,1.90
2023-04-04T10:23:42.903Z,1.60
2023-04-04T10:26:13.304Z,2.00
2023-04-04T10:28:42.393Z,2.27
2023-04-04T10:31:17.557Z,1.83
2023-04-04T10:33:52.004Z,1.63
2023-04-04T10:36:23.121Z,1.17
2023-04-04T10:38:59.841Z,1.40
2023-04-04T10:41:28.618Z,1.50
2023-04-04T10:43:57.779Z,1.57
2023-04-04T10:46:30.982Z,1.90
2023-04-04T10:49:01.573Z,1.60
2023-04-04T10:51:35.337Z,1.30
2023-04-04T10:54:08.232Z,1.43
2023-04-04T10:56:37.649Z,1.80
2023-04-04T10:59:13.496Z,1.30
2023-04-04T11:01:58.561Z,1.50
2023-04-04T11:04:35.196Z,1.70
2023-04-04T11:07:11.429Z,1.23
2023-04-04T11:09:52.978Z,1.30
2023-04-04T11:12:28.176Z,1.53
2023-04-04T11:15:09.772Z,1.33
2023-04-04T11:18:17.916Z,1.47
2023-04-04T11:20:51.707Z,1.50
2023-04-04T11:23:22.201Z,1.40
2023-04-04T11:25:54.044Z,1.27
2023-04-04T11:28:46.428Z,1.30
2023-04-04T11:31:29.180Z,1.60
2023-04-04T11:33:59.514Z,1.27
2023-04-04T11:36:56.583Z,1.43
2023-04-04T11:39:28.536Z,1.60
2023-04-04T11:41:58.780Z,1.40
2023-04-04T11:44:30.647Z,1.30
2023-04-04T11:47:04.902Z,1.47
2023-04-04T11:49:35.837Z,1.37
2023-04-04T11:52:09.031Z,1.50
2023-04-04T11:54:37.714Z,1.30
2023-04-04T11:57:07.501Z,1.87
2023-04-04T11:59:40.105Z,1.37
2023-04-04T12:02:08.387Z,1.50
2023-04-04T12:04:38.210Z,1.47
2023-04-04T12:07:09.294Z,1.33
2023-04-04T12:09:37.389Z,1.30
2023-04-04T12:12:07.624Z,1.17
2023-04-04T12:14:35.722Z,1.37
2023-04-04T12:17:04.114Z,1.43
2023-04-04T12:19:32.430Z,1.53
2023-04-04T12:22:00.347Z,1.20
2023-04-04T12:24:29.862Z,1.33
2023-04-04T12:26:58.553Z,1.30
2023-04-04T12:29:27.561Z,1.03
2023-04-04T12:31:56.115Z,1.17
2023-04-04T12:34:24.972Z,1.23
2023-04-04T12:36:54.113Z,1.23
2023-04-04T12:39:23.311Z,1.33
2023-04-04T12:41:57.436Z,1.33
2023-04-04T12:44:29.394Z,1.30
2023-04-04T12:47:02.306Z,1.03
2023-04-04T12:49:31.651Z,1.30
2023-04-04T12:52:03.874Z,1.30
2023-04-04T12:54:33.397Z,1.40
2023-04-04T12:57:05.680Z,0.97
2023-04-04T12:59:35.529Z,1.30
2023-04-04T13:02:04.085Z,1.30
2023-04-04T13:04:33.418Z,1.13
2023-04-04T13:07:02.041Z,1.20
2023-04-04T13:09:30.130Z,1.90
2023-04-04T13:12:01.993Z,1.30
2023-04-04T13:14:58.218Z,1.20
2023-04-04T13:17:26.221Z,1.00
2023-04-04T13:19:54.217Z,1.43
2023-04-04T13:22:22.135Z,1.33
2023-04-04T13:24:50.170Z,1.30
2023-04-04T13:27:18.086Z,1.30
2023-04-04T13:29:47.350Z,0.90
2023-04-04T13:32:15.308Z,1.10
2023-04-04T13:34:43.231Z,1.20
2023-04-04T13:37:11.191Z,1.37
2023-04-04T13:39:39.209Z,1.20
2023-04-04T13:42:07.900Z,1.17
2023-04-04T13:44:35.796Z,1.20
2023-04-04T13:47:05.261Z,1.00
2023-04-04T13:49:35.480Z,1.03
2023-04-04T13:52:03.411Z,1.40
2023-04-04T13:54:31.339Z,1.20
2023-04-04T13:56:59.278Z,1.40
2023-04-04T13:59:27.265Z,1.10
2023-04-04T14:01:55.310Z,3.00
2023-04-04T14:04:27.231Z,1.23
2023-04-04T14:06:55.209Z,1.30
2023-04-04T14:09:23.993Z,1.23
2023-04-04T14:11:51.895Z,1.70
2023-04-04T14:14:19.842Z,1.33
2023-04-04T14:16:47.753Z,1.50
2023-04-04T14:19:15.671Z,1.63
2023-04-04T14:21:45.005Z,1.60
2023-04-04T14:24:12.900Z,1.47
2023-04-04T14:26:40.868Z,1.43
2023-04-04T14:29:11.353Z,1.70
2023-04-04T14:31:39.304Z,1.17
2023-04-04T14:34:07.679Z,1.10
2023-04-04T14:36:35.987Z,1.17
2023-04-04T14:39:05.454Z,1.20
2023-04-04T14:41:33.425Z,1.30
2023-04-04T14:44:01.609Z,1.30
2023-04-04T14:46:29.573Z,1.20
2023-04-04T14:48:57.576Z,1.13
2023-04-04T14:51:25.552Z,0.97
2023-04-04T14:53:55.428Z,1.10
2023-04-04T14:56:24.798Z,0.90
2023-04-04T14:58:52.905Z,1.30
2023-04-04T15:01:21.971Z,0.90
2023-04-04T15:03:50.014Z,1.20
2023-04-04T15:06:18.079Z,1.10
2023-04-04T15:08:49.352Z,0.90
2023-04-04T15:11:17.674Z,1.00
2023-04-04T15:13:49.584Z,1.23
2023-04-04T15:16:17.788Z,1.20
2023-04-04T15:18:45.792Z,1.10
2023-04-04T15:21:13.744Z,1.00
2023-04-04T15:23:41.675Z,0.90
2023-04-04T15:26:09.623Z,0.90
2023-04-04T15:28:37.559Z,0.80
2023-04-04T15:31:06.902Z,1.20
2023-04-04T15:33:34.868Z,1.30
2023-04-04T15:36:02.769Z,1.10
2023-04-04T15:38:30.684Z,0.90
2023-04-04T15:40:59.003Z,0.90
2023-04-04T15:43:27.127Z,1.13
2023-04-04T15:45:55.076Z,1.23
2023-04-04T15:48:24.610Z,1.00
2023-04-04T15:50:52.825Z,1.10
2023-04-04T15:53:20.804Z,1.00
2023-04-04T15:55:48.741Z,1.20
2023-04-04T15:58:16.819Z,0.93
2023-04-04T16:00:47.428Z,1.20
2023-04-04T16:03:15.511Z,1.30
2023-04-04T16:05:44.947Z,1.30
2023-04-04T16:08:14.306Z,1.73
2023-04-04T16:10:44.115Z,1.53
2023-04-04T16:13:12.303Z,1.40
2023-04-04T16:15:40.467Z,2.07
2023-04-04T16:18:08.819Z,1.83
2023-04-04T16:20:36.970Z,1.40
2023-04-04T16:23:06.238Z,1.70
2023-04-04T16:25:34.117Z,1.60
2023-04-04T16:28:02.106Z,1.70
2023-04-04T16:30:30.311Z,1.40
2023-04-04T16:32:58.218Z,1.30
2023-04-04T16:35:27.011Z,1.33
2023-04-04T16:37:55.273Z,1.47
2023-04-04T16:40:25.046Z,1.40
2023-04-04T16:42:53.029Z,1.40
2023-04-04T16:45:21.716Z,1.47
2023-04-04T16:47:49.943Z,1.27
2023-04-04T16:50:17.887Z,1.20
2023-04-04T16:52:46.016Z,1.30
2023-04-04T16:55:13.949Z,1.67
2023-04-04T16:57:44.548Z,1.90
2023-04-04T17:00:14.017Z,1.50
2023-04-04T17:02:45.579Z,1.40
2023-04-04T17:05:13.868Z,1.70
2023-04-04T17:07:42.141Z,1.40
2023-04-04T17:10:10.879Z,1.37
2023-04-04T17:12:39.429Z,1.40
2023-04-04T17:15:10.046Z,1.30
2023-04-04T17:17:37.982Z,1.70
2023-04-04T17:20:06.927Z,1.30
2023-04-04T17:22:34.885Z,1.30
2023-04-04T17:25:03.500Z,1.03
2023-04-04T17:27:31.780Z,1.70
2023-04-04T17:29:59.921Z,1.40
2023-04-04T17:32:29.381Z,1.30
2023-04-04T17:34:57.345Z,1.70
2023-04-04T17:37:29.111Z,1.37
2023-04-04T17:39:57.051Z,1.53
2023-04-04T17:42:25.082Z,1.57
2023-04-04T17:44:52.996Z,1.40
2023-04-04T17:47:21.229Z,1.37
2023-04-04T17:49:51.339Z,1.10
2023-04-04T17:52:20.182Z,1.60
2023-04-04T17:54:48.912Z,1.03
2023-04-04T17:57:17.584Z,1.27
2023-04-04T17:59:46.509Z,1.40
2023-04-04T18:02:14.425Z,1.40
2023-04-04T18:04:42.287Z,1.47
2023-04-04T18:07:12.406Z,1.37
2023-04-04T18:09:40.333Z,1.50
2023-04-04T18:12:08.818Z,1.40
2023-04-04T18:14:36.861Z,1.50
2023-04-04T18:17:04.926Z,1.33
2023-04-04T18:19:32.905Z,1.40
2023-04-04T18:22:01.052Z,1.30
2023-04-04T18:24:30.573Z,1.30
2023-04-04T18:26:58.550Z,1.47
2023-04-04T18:29:26.890Z,1.43
2023-04-04T18:31:54.951Z,1.70
2023-04-04T18:34:23.188Z,1.53
2023-04-04T18:36:51.611Z,1.30
2023-04-04T18:39:19.519Z,1.63
2023-04-04T18:41:49.151Z,1.23
2023-04-04T18:44:17.099Z,1.30
2023-04-04T18:46:45.057Z,1.30
2023-04-04T18:49:13.028Z,1.20
2023-04-04T18:51:40.956Z,1.30
2023-04-04T18:54:08.880Z,1.47
2023-04-04T18:56:38.529Z,1.60
2023-04-04T18:59:08.509Z,1.83
2023-04-04T19:01:36.992Z,2.43
2023-04-04T19:04:05.201Z,2.63
2023-04-04T19:06:33.479Z,3.00
2023-04-04T19:09:03.919Z,3.00
2023-04-04T19:11:32.372Z,3.37
2023-04-04T19:14:00.331Z,3.37
2023-04-04T19:16:29.689Z,3.17
2023-04-04T19:18:57.685Z,3.23
2023-04-04T19:21:25.575Z,3.80
2023-04-04T19:23:54.137Z,3.23
2023-04-04T19:26:22.480Z,2.73
2023-04-04T19:28:50.707Z,3.27
2023-04-04T19:31:22.207Z,2.90
2023-04-04T19:33:52.047Z,3.10
2023-04-04T19:36:20.965Z,2.90
2023-04-04T19:38:49.434Z,2.90
2023-04-04T19:41:32.667Z,2.80
2023-04-04T19:44:00.756Z,3.20
2023-04-04T19:46:31.619Z,2.63
2023-04-04T19:49:02.965Z,2.60
2023-04-04T19:51:42.632Z,2.30
2023-04-04T19:54:15.975Z,2.63
2023-04-04T19:56:46.626Z,2.57
2023-04-04T19:59:51.686Z,2.80
2023-04-04T20:02:47.248Z,2.50
2023-04-04T20:05:53.390Z,2.60
2023-04-04T20:08:22.847Z,2.93
2023-04-04T20:10:52.083Z,2.20
2023-04-04T20:13:20.137Z,2.40
2023-04-04T20:16:01.743Z,2.57
2023-04-04T20:18:31.582Z,2.00
2023-04-04T20:21:01.710Z,2.33
2023-04-04T20:23:32.677Z,2.47
2023-04-04T20:26:07.024Z,2.30
2023-04-04T20:28:35.580Z,2.30
2023-04-04T20:31:06.612Z,2.30
2023-04-04T20:33:36.675Z,2.20
2023-04-04T20:36:12.672Z,2.20
2023-04-04T20:38:43.435Z,2.13
2023-04-04T20:41:17.195Z,2.40
2023-04-04T20:43:52.874Z,2.17
2023-04-04T20:46:21.706Z,2.30
2023-04-04T20:48:50.698Z,2.13
2023-04-04T20:51:24.691Z,2.03
2023-04-04T20:53:55.878Z,2.03
2023-04-04T20:56:55.354Z,1.80
2023-04-04T20:59:32.850Z,1.80
2023-04-04T21:02:08.217Z,1.90
2023-04-04T21:04:38.523Z,2.10
2023-04-04T21:07:07.461Z,2.17
2023-04-04T21:09:36.873Z,1.70
2023-04-04T21:12:07.732Z,2.10
2023-04-04T21:14:37.583Z,1.80
2023-04-04T21:17:07.637Z,1.90
2023-04-04T21:19:35.656Z,1.80
2023-04-04T21:22:04.877Z,2.13
2023-04-04T21:24:36.712Z,1.90
2023-04-04T21:27:07.509Z,2.20
2023-04-04T21:29:35.473Z,2.00
2023-04-04T21:32:03.990Z,2.30
2023-04-04T21:34:32.488Z,2.10
2023-04-04T21:37:02.838Z,2.70
2023-04-04T21:39:31.634Z,2.40
2023-04-04T21:42:03.627Z,2.40
2023-04-04T21:44:32.866Z,2.40
2023-04-04T21:47:00.847Z,2.33
2023-04-04T21:49:29.823Z,2.03
2023-04-04T21:51:57.737Z,2.37
2023-04-04T21:54:25.676Z,2.13
2023-04-04T21:56:53.681Z,2.60
2023-04-04T21:59:23.024Z,2.23
2023-04-04T22:01:51.744Z,2.40
2023-04-04T22:04:19.732Z,2.10
2023-04-04T22:06:47.653Z,1.97
2023-04-04T22:09:16.093Z,1.80
2023-04-04T22:11:45.331Z,2.13
2023-04-04T22:14:17.409Z,2.20
2023-04-04T22:16:47.119Z,1.67
2023-04-04T22:19:15.182Z,2.33
2023-04-04T22:21:47.278Z,1.77
2023-04-04T22:24:15.897Z,1.83
2023-04-04T22:26:45.987Z,2.13
2023-04-04T22:29:14.154Z,1.67
2023-04-04T22:31:42.138Z,2.13
2023-04-04T22:34:14.089Z,1.93
2023-04-04T22:36:43.807Z,1.60
2023-04-04T22:39:12.144Z,2.00
2023-04-04T22:41:40.071Z,1.70
2023-04-04T22:44:07.991Z,2.00
2023-04-04T22:46:35.919Z,2.40
2023-04-04T22:49:07.265Z,1.70
2023-04-04T22:51:43.979Z,2.07
2023-04-04T22:54:14.467Z,1.70
2023-04-04T22:56:42.824Z,1.80
2023-04-04T22:59:10.963Z,1.90
2023-04-04T23:01:39.009Z,1.80
2023-04-04T23:04:07.044Z,1.80
2023-04-04T23:06:38.523Z,1.80
2023-04-04T23:09:07.915Z,1.73
2023-04-04T23:11:36.083Z,1.60
2023-04-04T23:14:08.542Z,1.73
2023-04-04T23:16:36.732Z,1.87
2023-04-04T23:19:05.026Z,1.43
2023-04-04T23:21:33.037Z,1.80
2023-04-04T23:24:02.365Z,1.80
2023-04-04T23:26:30.304Z,1.43
2023-04-04T23:28:58.204Z,1.60
2023-04-04T23:31:26.668Z,1.93
2023-04-04T23:33:54.570Z,1.63
2023-04-04T23:36:22.560Z,1.70
2023-04-04T23:38:50.592Z,1.30
2023-04-04T23:41:19.927Z,1.37
2023-04-04T23:43:47.849Z,1.60
2023-04-04T23:46:15.882Z,1.53
2023-04-04T23:48:43.869Z,1.40
2023-04-04T23:51:12.202Z,1.40
2023-04-04T23:53:40.446Z,1.50
2023-04-04T23:56:08.797Z,1.50
2023-04-04T23:58:38.432Z,1.50
